Saint George, Maine
Current Conditions -  °F | °C
As of 8:35 PM on Tuesday 21 Oct 2014 (Local Time) from KRKD Reporting Station
Overcast Overcast  
Wind Chill: 54°   Ceiling: 900
Heat Index: 54°   Visibility: 8mi
Dew Point: 54°   Wind: 13mph
Humidity: 100%   Direction: 70°ENE
Pressure: 30.05"   Gusts: NA
Location:  44.02°N, 69.2°W
Report Text: KRKD 220035Z AUTO 07011KT 8SM BKN009 OVC016 12/12 A3005 RMK AO1 P0002
Loading
Personal Weather Stations






























Interactive Weather Map
Tropical Storm Tracking
New forecast layout! Learn more

10-Day Weather Forecast

Advertisements
Track Severe Weather on mobile